Terminal Aerodrome Forecast
Issued by NWS

Home | Current Version | Previous Version | Text Only | Print | Product List | Glossary On
Versions: 1 2 3 4 5 6 7 8 9 10 11 12 13 14 15 16 17 18 19
000
FTUS42 KGSP 242130 AAA
TAFAND
TAF AMD
KAND 242130Z 2421/2518 31008KT P6SM VCSH OVC007
     FM250000 01009KT P6SM VCSH OVC007
     FM250300 02008KT P6SM OVC007
     FM251100 32006KT P6SM BKN015
     FM251600 34006KT P6SM BKN035=

USA.gov is the U.S. government's official web portal to all federal, state and local government web resources and services.